sensor_id;sensor_type;location;lat;lon;timestamp;P1;durP1;ratioP1;P2;durP2;ratioP2
19306;SDS011;9788;48.194;16.318;2024-01-06T00:01:02;25.23;;;14.70;;
19306;SDS011;9788;48.194;16.318;2024-01-06T00:03:57;27.53;;;16.67;;
19306;SDS011;9788;48.194;16.318;2024-01-06T00:06:29;28.97;;;16.57;;
19306;SDS011;9788;48.194;16.318;2024-01-06T00:09:11;30.43;;;17.00;;
19306;SDS011;9788;48.194;16.318;2024-01-06T00:11:42;29.40;;;16.67;;
19306;SDS011;9788;48.194;16.318;2024-01-06T00:14:13;29.27;;;16.50;;
19306;SDS011;9788;48.194;16.318;2024-01-06T00:16:46;33.00;;;16.13;;
19306;SDS011;9788;48.194;16.318;2024-01-06T00:19:22;31.23;;;17.10;;
19306;SDS011;9788;48.194;16.318;2024-01-06T00:22:00;29.40;;;17.07;;
19306;SDS011;9788;48.194;16.318;2024-01-06T00:24:34;30.07;;;17.10;;
19306;SDS011;9788;48.194;16.318;2024-01-06T00:27:06;28.37;;;16.77;;
19306;SDS011;9788;48.194;16.318;2024-01-06T00:29:36;30.87;;;16.90;;
19306;SDS011;9788;48.194;16.318;2024-01-06T00:32:11;31.47;;;17.60;;
19306;SDS011;9788;48.194;16.318;2024-01-06T00:34:45;33.07;;;17.43;;
19306;SDS011;9788;48.194;16.318;2024-01-06T00:37:16;29.80;;;18.47;;
19306;SDS011;9788;48.194;16.318;2024-01-06T00:39:57;29.00;;;17.53;;
19306;SDS011;9788;48.194;16.318;2024-01-06T00:42:27;34.20;;;17.57;;
19306;SDS011;9788;48.194;16.318;2024-01-06T00:44:59;33.60;;;17.73;;
19306;SDS011;9788;48.194;16.318;2024-01-06T00:47:29;32.97;;;19.37;;
19306;SDS011;9788;48.194;16.318;2024-01-06T00:50:02;30.93;;;18.10;;
19306;SDS011;9788;48.194;16.318;2024-01-06T00:52:32;31.87;;;18.77;;
19306;SDS011;9788;48.194;16.318;2024-01-06T00:55:00;31.20;;;18.47;;
19306;SDS011;9788;48.194;16.318;2024-01-06T00:57:33;34.77;;;18.70;;
19306;SDS011;9788;48.194;16.318;2024-01-06T01:00:05;28.47;;;17.03;;
19306;SDS011;9788;48.194;16.318;2024-01-06T01:02:36;32.73;;;18.73;;
19306;SDS011;9788;48.194;16.318;2024-01-06T01:05:09;30.97;;;18.47;;
19306;SDS011;9788;48.194;16.318;2024-01-06T01:07:39;35.87;;;19.67;;
19306;SDS011;9788;48.194;16.318;2024-01-06T01:10:08;34.27;;;19.33;;
19306;SDS011;9788;48.194;16.318;2024-01-06T01:12:38;33.43;;;19.33;;
19306;SDS011;9788;48.194;16.318;2024-01-06T01:15:09;30.37;;;18.37;;
19306;SDS011;9788;48.194;16.318;2024-01-06T01:17:37;33.73;;;19.13;;
19306;SDS011;9788;48.194;16.318;2024-01-06T01:20:06;30.23;;;18.17;;
19306;SDS011;9788;48.194;16.318;2024-01-06T01:22:37;32.77;;;17.77;;
19306;SDS011;9788;48.194;16.318;2024-01-06T01:25:05;27.73;;;17.53;;
19306;SDS011;9788;48.194;16.318;2024-01-06T01:27:34;29.37;;;17.57;;
19306;SDS011;9788;48.194;16.318;2024-01-06T01:30:04;31.47;;;16.80;;
19306;SDS011;9788;48.194;16.318;2024-01-06T01:32:35;29.37;;;17.33;;
19306;SDS011;9788;48.194;16.318;2024-01-06T01:35:06;31.90;;;18.00;;
19306;SDS011;9788;48.194;16.318;2024-01-06T01:37:39;38.50;;;19.43;;
19306;SDS011;9788;48.194;16.318;2024-01-06T01:40:09;33.03;;;17.97;;
19306;SDS011;9788;48.194;16.318;2024-01-06T01:42:42;30.97;;;17.50;;
19306;SDS011;9788;48.194;16.318;2024-01-06T01:45:11;35.57;;;19.57;;
19306;SDS011;9788;48.194;16.318;2024-01-06T01:47:39;33.90;;;19.57;;
19306;SDS011;9788;48.194;16.318;2024-01-06T01:50:19;33.23;;;19.63;;
19306;SDS011;9788;48.194;16.318;2024-01-06T01:52:54;31.40;;;18.70;;
19306;SDS011;9788;48.194;16.318;2024-01-06T01:55:23;33.20;;;19.43;;
19306;SDS011;9788;48.194;16.318;2024-01-06T01:57:56;42.33;;;22.43;;
19306;SDS011;9788;48.194;16.318;2024-01-06T02:00:29;37.67;;;19.67;;
19306;SDS011;9788;48.194;16.318;2024-01-06T02:02:58;30.30;;;18.97;;
19306;SDS011;9788;48.194;16.318;2024-01-06T02:05:30;39.63;;;22.13;;
19306;SDS011;9788;48.194;16.318;2024-01-06T02:07:58;37.47;;;20.37;;
19306;SDS011;9788;48.194;16.318;2024-01-06T02:10:29;40.80;;;20.20;;
19306;SDS011;9788;48.194;16.318;2024-01-06T02:13:06;38.33;;;19.73;;
19306;SDS011;9788;48.194;16.318;2024-01-06T02:15:35;39.00;;;20.40;;
19306;SDS011;9788;48.194;16.318;2024-01-06T02:18:05;33.30;;;19.67;;
19306;SDS011;9788;48.194;16.318;2024-01-06T02:20:37;39.13;;;21.50;;
19306;SDS011;9788;48.194;16.318;2024-01-06T02:23:11;40.30;;;21.57;;
19306;SDS011;9788;48.194;16.318;2024-01-06T02:25:39;37.03;;;21.00;;
19306;SDS011;9788;48.194;16.318;2024-01-06T02:28:08;40.00;;;21.37;;
19306;SDS011;9788;48.194;16.318;2024-01-06T02:30:36;36.00;;;21.33;;
19306;SDS011;9788;48.194;16.318;2024-01-06T02:33:07;38.70;;;21.77;;
19306;SDS011;9788;48.194;16.318;2024-01-06T02:35:36;32.90;;;19.97;;
19306;SDS011;9788;48.194;16.318;2024-01-06T02:38:06;39.73;;;21.50;;
19306;SDS011;9788;48.194;16.318;2024-01-06T02:40:36;35.73;;;20.97;;
19306;SDS011;9788;48.194;16.318;2024-01-06T02:43:04;40.73;;;21.97;;
19306;SDS011;9788;48.194;16.318;2024-01-06T02:45:35;38.80;;;22.00;;
19306;SDS011;9788;48.194;16.318;2024-01-06T02:48:04;39.67;;;21.47;;
19306;SDS011;9788;48.194;16.318;2024-01-06T02:50:32;41.00;;;22.27;;
19306;SDS011;9788;48.194;16.318;2024-01-06T02:53:01;38.30;;;20.00;;
19306;SDS011;9788;48.194;16.318;2024-01-06T02:55:29;36.80;;;20.20;;
19306;SDS011;9788;48.194;16.318;2024-01-06T02:57:59;36.47;;;20.07;;
19306;SDS011;9788;48.194;16.318;2024-01-06T03:00:27;34.93;;;20.70;;
19306;SDS011;9788;48.194;16.318;2024-01-06T03:02:55;36.40;;;20.13;;
19306;SDS011;9788;48.194;16.318;2024-01-06T03:05:23;36.80;;;21.33;;
19306;SDS011;9788;48.194;16.318;2024-01-06T03:07:51;36.10;;;21.50;;
19306;SDS011;9788;48.194;16.318;2024-01-06T03:10:20;37.33;;;21.13;;
19306;SDS011;9788;48.194;16.318;2024-01-06T03:12:48;36.60;;;21.00;;
19306;SDS011;9788;48.194;16.318;2024-01-06T03:15:17;41.53;;;23.20;;
19306;SDS011;9788;48.194;16.318;2024-01-06T03:17:46;44.20;;;25.37;;
19306;SDS011;9788;48.194;16.318;2024-01-06T03:20:14;44.27;;;25.30;;
19306;SDS011;9788;48.194;16.318;2024-01-06T03:22:43;46.17;;;25.70;;
19306;SDS011;9788;48.194;16.318;2024-01-06T03:25:12;40.83;;;23.73;;
19306;SDS011;9788;48.194;16.318;2024-01-06T03:27:40;40.93;;;24.20;;
19306;SDS011;9788;48.194;16.318;2024-01-06T03:30:12;39.20;;;23.83;;
19306;SDS011;9788;48.194;16.318;2024-01-06T03:32:42;38.20;;;22.90;;
19306;SDS011;9788;48.194;16.318;2024-01-06T03:35:10;42.00;;;23.47;;
19306;SDS011;9788;48.194;16.318;2024-01-06T03:37:38;39.30;;;22.47;;
19306;SDS011;9788;48.194;16.318;2024-01-06T03:40:08;41.57;;;23.20;;
19306;SDS011;9788;48.194;16.318;2024-01-06T03:42:36;43.93;;;24.17;;
19306;SDS011;9788;48.194;16.318;2024-01-06T03:45:06;42.13;;;23.03;;
19306;SDS011;9788;48.194;16.318;2024-01-06T03:47:35;39.90;;;22.90;;
19306;SDS011;9788;48.194;16.318;2024-01-06T03:50:05;38.93;;;23.40;;
19306;SDS011;9788;48.194;16.318;2024-01-06T03:52:34;40.30;;;23.10;;
19306;SDS011;9788;48.194;16.318;2024-01-06T03:55:05;41.30;;;23.83;;
19306;SDS011;9788;48.194;16.318;2024-01-06T03:57:33;41.40;;;24.20;;
19306;SDS011;9788;48.194;16.318;2024-01-06T04:00:02;40.33;;;24.00;;
19306;SDS011;9788;48.194;16.318;2024-01-06T04:02:31;39.77;;;22.97;;
19306;SDS011;9788;48.194;16.318;2024-01-06T04:04:59;38.57;;;23.07;;
19306;SDS011;9788;48.194;16.318;2024-01-06T04:07:29;41.87;;;23.60;;
19306;SDS011;9788;48.194;16.318;2024-01-06T04:09:57;43.20;;;24.97;;
19306;SDS011;9788;48.194;16.318;2024-01-06T04:12:26;40.70;;;24.40;;
19306;SDS011;9788;48.194;16.318;2024-01-06T04:14:54;40.20;;;23.40;;
19306;SDS011;9788;48.194;16.318;2024-01-06T04:17:23;42.17;;;24.70;;
19306;SDS011;9788;48.194;16.318;2024-01-06T04:19:52;40.77;;;23.97;;
19306;SDS011;9788;48.194;16.318;2024-01-06T04:22:20;44.57;;;25.80;;
19306;SDS011;9788;48.194;16.318;2024-01-06T04:24:50;43.17;;;24.20;;
19306;SDS011;9788;48.194;16.318;2024-01-06T04:27:19;43.57;;;24.53;;
19306;SDS011;9788;48.194;16.318;2024-01-06T04:29:47;43.23;;;24.33;;
19306;SDS011;9788;48.194;16.318;2024-01-06T04:32:19;43.30;;;25.27;;
19306;SDS011;9788;48.194;16.318;2024-01-06T04:34:47;40.23;;;25.20;;
19306;SDS011;9788;48.194;16.318;2024-01-06T04:37:15;45.20;;;25.03;;
19306;SDS011;9788;48.194;16.318;2024-01-06T04:39:43;43.20;;;24.73;;
19306;SDS011;9788;48.194;16.318;2024-01-06T04:42:13;47.07;;;25.17;;
19306;SDS011;9788;48.194;16.318;2024-01-06T04:44:41;43.67;;;26.13;;
19306;SDS011;9788;48.194;16.318;2024-01-06T04:47:09;40.07;;;24.80;;
19306;SDS011;9788;48.194;16.318;2024-01-06T04:49:38;39.37;;;23.97;;
19306;SDS011;9788;48.194;16.318;2024-01-06T04:52:06;43.47;;;24.83;;
19306;SDS011;9788;48.194;16.318;2024-01-06T04:54:34;43.63;;;24.83;;
19306;SDS011;9788;48.194;16.318;2024-01-06T04:57:02;42.93;;;24.20;;
19306;SDS011;9788;48.194;16.318;2024-01-06T04:59:33;41.57;;;24.77;;
19306;SDS011;9788;48.194;16.318;2024-01-06T05:02:01;41.30;;;23.57;;
19306;SDS011;9788;48.194;16.318;2024-01-06T05:04:30;41.70;;;24.40;;
19306;SDS011;9788;48.194;16.318;2024-01-06T05:06:59;43.13;;;25.30;;
19306;SDS011;9788;48.194;16.318;2024-01-06T05:09:30;45.73;;;24.47;;
19306;SDS011;9788;48.194;16.318;2024-01-06T05:11:58;44.70;;;25.50;;
19306;SDS011;9788;48.194;16.318;2024-01-06T05:14:26;42.93;;;25.43;;
19306;SDS011;9788;48.194;16.318;2024-01-06T05:16:56;44.97;;;25.43;;
19306;SDS011;9788;48.194;16.318;2024-01-06T05:19:24;42.70;;;24.30;;
19306;SDS011;9788;48.194;16.318;2024-01-06T05:21:52;39.63;;;24.20;;
19306;SDS011;9788;48.194;16.318;2024-01-06T05:24:24;45.20;;;24.87;;
19306;SDS011;9788;48.194;16.318;2024-01-06T05:26:52;42.40;;;24.50;;
19306;SDS011;9788;48.194;16.318;2024-01-06T05:29:20;43.47;;;25.23;;
19306;SDS011;9788;48.194;16.318;2024-01-06T05:31:49;43.30;;;25.40;;
19306;SDS011;9788;48.194;16.318;2024-01-06T05:34:18;46.70;;;25.93;;
19306;SDS011;9788;48.194;16.318;2024-01-06T05:36:47;42.03;;;23.93;;
19306;SDS011;9788;48.194;16.318;2024-01-06T05:39:15;40.03;;;24.90;;
19306;SDS011;9788;48.194;16.318;2024-01-06T05:41:44;47.07;;;26.73;;
19306;SDS011;9788;48.194;16.318;2024-01-06T05:44:12;38.93;;;23.53;;
19306;SDS011;9788;48.194;16.318;2024-01-06T05:46:41;41.30;;;24.07;;
19306;SDS011;9788;48.194;16.318;2024-01-06T05:49:09;41.97;;;24.83;;
19306;SDS011;9788;48.194;16.318;2024-01-06T05:51:44;43.93;;;25.40;;
19306;SDS011;9788;48.194;16.318;2024-01-06T05:54:13;41.67;;;25.73;;
19306;SDS011;9788;48.194;16.318;2024-01-06T05:56:41;41.87;;;24.13;;
19306;SDS011;9788;48.194;16.318;2024-01-06T05:59:10;41.67;;;24.53;;
19306;SDS011;9788;48.194;16.318;2024-01-06T06:01:38;37.70;;;23.07;;
19306;SDS011;9788;48.194;16.318;2024-01-06T06:04:07;38.93;;;23.37;;
19306;SDS011;9788;48.194;16.318;2024-01-06T06:06:35;38.90;;;22.83;;
19306;SDS011;9788;48.194;16.318;2024-01-06T06:09:05;39.67;;;23.33;;
19306;SDS011;9788;48.194;16.318;2024-01-06T06:11:36;37.73;;;23.30;;
19306;SDS011;9788;48.194;16.318;2024-01-06T06:14:05;34.87;;;21.13;;
19306;SDS011;9788;48.194;16.318;2024-01-06T06:16:33;34.37;;;21.30;;
19306;SDS011;9788;48.194;16.318;2024-01-06T06:19:01;35.37;;;21.53;;
19306;SDS011;9788;48.194;16.318;2024-01-06T06:21:30;37.37;;;22.23;;
19306;SDS011;9788;48.194;16.318;2024-01-06T06:23:58;38.40;;;22.87;;
19306;SDS011;9788;48.194;16.318;2024-01-06T06:26:28;39.33;;;22.97;;
19306;SDS011;9788;48.194;16.318;2024-01-06T06:28:59;36.37;;;22.93;;
19306;SDS011;9788;48.194;16.318;2024-01-06T06:31:28;39.57;;;22.93;;
19306;SDS011;9788;48.194;16.318;2024-01-06T06:33:57;49.53;;;29.50;;
19306;SDS011;9788;48.194;16.318;2024-01-06T06:36:27;36.37;;;23.10;;
19306;SDS011;9788;48.194;16.318;2024-01-06T06:38:57;40.47;;;23.30;;
19306;SDS011;9788;48.194;16.318;2024-01-06T06:41:25;42.90;;;24.17;;
19306;SDS011;9788;48.194;16.318;2024-01-06T06:43:56;46.87;;;26.23;;
19306;SDS011;9788;48.194;16.318;2024-01-06T06:46:26;50.23;;;27.83;;
19306;SDS011;9788;48.194;16.318;2024-01-06T06:48:54;49.13;;;26.50;;
19306;SDS011;9788;48.194;16.318;2024-01-06T06:51:23;45.30;;;25.70;;
19306;SDS011;9788;48.194;16.318;2024-01-06T06:53:54;45.80;;;24.20;;
19306;SDS011;9788;48.194;16.318;2024-01-06T06:56:22;45.30;;;24.97;;
19306;SDS011;9788;48.194;16.318;2024-01-06T06:58:51;39.50;;;23.23;;
19306;SDS011;9788;48.194;16.318;2024-01-06T07:01:20;36.60;;;22.47;;
19306;SDS011;9788;48.194;16.318;2024-01-06T07:03:48;38.80;;;23.67;;
19306;SDS011;9788;48.194;16.318;2024-01-06T07:06:17;39.87;;;22.33;;
19306;SDS011;9788;48.194;16.318;2024-01-06T07:08:45;41.43;;;24.90;;
19306;SDS011;9788;48.194;16.318;2024-01-06T07:11:13;39.57;;;22.77;;
19306;SDS011;9788;48.194;16.318;2024-01-06T07:13:44;40.60;;;24.07;;
19306;SDS011;9788;48.194;16.318;2024-01-06T07:16:15;48.53;;;24.57;;
19306;SDS011;9788;48.194;16.318;2024-01-06T07:18:45;38.87;;;23.33;;
19306;SDS011;9788;48.194;16.318;2024-01-06T07:21:13;44.23;;;24.50;;
19306;SDS011;9788;48.194;16.318;2024-01-06T07:23:42;42.47;;;24.93;;
19306;SDS011;9788;48.194;16.318;2024-01-06T07:26:10;44.07;;;25.13;;
19306;SDS011;9788;48.194;16.318;2024-01-06T07:28:38;44.30;;;24.53;;
19306;SDS011;9788;48.194;16.318;2024-01-06T07:31:07;41.80;;;24.70;;
19306;SDS011;9788;48.194;16.318;2024-01-06T07:33:39;45.13;;;24.73;;
19306;SDS011;9788;48.194;16.318;2024-01-06T07:36:08;45.80;;;25.13;;
19306;SDS011;9788;48.194;16.318;2024-01-06T07:38:37;40.90;;;23.30;;
19306;SDS011;9788;48.194;16.318;2024-01-06T07:41:06;44.53;;;23.93;;
19306;SDS011;9788;48.194;16.318;2024-01-06T07:43:35;44.30;;;24.30;;
19306;SDS011;9788;48.194;16.318;2024-01-06T07:46:04;43.90;;;24.23;;
19306;SDS011;9788;48.194;16.318;2024-01-06T07:48:33;44.10;;;24.47;;
19306;SDS011;9788;48.194;16.318;2024-01-06T07:51:03;44.93;;;24.60;;
19306;SDS011;9788;48.194;16.318;2024-01-06T07:53:32;40.57;;;23.23;;
19306;SDS011;9788;48.194;16.318;2024-01-06T07:56:00;47.73;;;25.87;;
19306;SDS011;9788;48.194;16.318;2024-01-06T07:58:29;44.10;;;23.80;;
19306;SDS011;9788;48.194;16.318;2024-01-06T08:00:58;37.70;;;22.70;;
19306;SDS011;9788;48.194;16.318;2024-01-06T08:03:28;39.30;;;22.53;;
19306;SDS011;9788;48.194;16.318;2024-01-06T08:05:58;39.77;;;22.30;;
19306;SDS011;9788;48.194;16.318;2024-01-06T08:08:29;43.33;;;23.77;;
19306;SDS011;9788;48.194;16.318;2024-01-06T08:10:59;39.17;;;22.10;;
19306;SDS011;9788;48.194;16.318;2024-01-06T08:13:27;37.47;;;22.03;;
19306;SDS011;9788;48.194;16.318;2024-01-06T08:15:57;37.43;;;21.40;;
19306;SDS011;9788;48.194;16.318;2024-01-06T08:18:28;34.77;;;21.33;;
19306;SDS011;9788;48.194;16.318;2024-01-06T08:20:56;36.70;;;20.67;;
19306;SDS011;9788;48.194;16.318;2024-01-06T08:23:25;34.17;;;20.33;;
19306;SDS011;9788;48.194;16.318;2024-01-06T08:25:55;30.37;;;18.53;;
19306;SDS011;9788;48.194;16.318;2024-01-06T08:28:24;28.83;;;17.40;;
19306;SDS011;9788;48.194;16.318;2024-01-06T08:30:54;30.83;;;19.00;;
19306;SDS011;9788;48.194;16.318;2024-01-06T08:33:26;29.53;;;17.27;;
19306;SDS011;9788;48.194;16.318;2024-01-06T08:35:55;26.20;;;16.93;;
19306;SDS011;9788;48.194;16.318;2024-01-06T08:38:23;26.20;;;16.97;;
19306;SDS011;9788;48.194;16.318;2024-01-06T08:40:51;28.40;;;17.40;;
19306;SDS011;9788;48.194;16.318;2024-01-06T08:43:22;26.33;;;15.90;;
19306;SDS011;9788;48.194;16.318;2024-01-06T08:45:52;25.43;;;15.67;;
19306;SDS011;9788;48.194;16.318;2024-01-06T08:48:21;22.87;;;15.67;;
19306;SDS011;9788;48.194;16.318;2024-01-06T08:50:50;22.53;;;15.20;;
19306;SDS011;9788;48.194;16.318;2024-01-06T08:53:19;25.27;;;15.10;;
19306;SDS011;9788;48.194;16.318;2024-01-06T08:55:55;27.43;;;15.63;;
19306;SDS011;9788;48.194;16.318;2024-01-06T08:58:30;23.97;;;15.77;;
19306;SDS011;9788;48.194;16.318;2024-01-06T09:01:06;29.73;;;17.33;;
19306;SDS011;9788;48.194;16.318;2024-01-06T09:03:40;26.80;;;16.27;;
19306;SDS011;9788;48.194;16.318;2024-01-06T09:06:14;24.00;;;15.60;;
19306;SDS011;9788;48.194;16.318;2024-01-06T09:09:04;27.73;;;16.23;;
19306;SDS011;9788;48.194;16.318;2024-01-06T09:11:34;27.33;;;15.93;;
19306;SDS011;9788;48.194;16.318;2024-01-06T09:14:05;25.53;;;16.03;;
19306;SDS011;9788;48.194;16.318;2024-01-06T09:16:34;24.93;;;15.97;;
19306;SDS011;9788;48.194;16.318;2024-01-06T09:19:03;27.13;;;15.67;;
19306;SDS011;9788;48.194;16.318;2024-01-06T09:21:33;26.63;;;15.10;;
19306;SDS011;9788;48.194;16.318;2024-01-06T09:24:03;23.90;;;15.30;;
19306;SDS011;9788;48.194;16.318;2024-01-06T09:26:36;19.50;;;13.70;;
19306;SDS011;9788;48.194;16.318;2024-01-06T09:29:08;19.07;;;12.67;;
19306;SDS011;9788;48.194;16.318;2024-01-06T09:31:38;20.97;;;13.07;;
19306;SDS011;9788;48.194;16.318;2024-01-06T09:34:08;20.93;;;12.73;;
19306;SDS011;9788;48.194;16.318;2024-01-06T09:36:39;18.87;;;12.90;;
19306;SDS011;9788;48.194;16.318;2024-01-06T09:39:26;19.10;;;12.33;;
19306;SDS011;9788;48.194;16.318;2024-01-06T09:41:57;18.27;;;12.07;;
19306;SDS011;9788;48.194;16.318;2024-01-06T09:44:33;17.80;;;11.17;;
19306;SDS011;9788;48.194;16.318;2024-01-06T09:47:02;15.33;;;10.70;;
19306;SDS011;9788;48.194;16.318;2024-01-06T09:49:34;19.50;;;11.73;;
19306;SDS011;9788;48.194;16.318;2024-01-06T09:52:11;15.80;;;11.33;;
19306;SDS011;9788;48.194;16.318;2024-01-06T09:54:52;19.13;;;12.40;;
19306;SDS011;9788;48.194;16.318;2024-01-06T09:57:33;17.03;;;11.10;;
19306;SDS011;9788;48.194;16.318;2024-01-06T10:00:31;17.30;;;11.00;;
19306;SDS011;9788;48.194;16.318;2024-01-06T10:03:20;16.90;;;9.80;;
19306;SDS011;9788;48.194;16.318;2024-01-06T10:05:54;16.10;;;10.30;;
19306;SDS011;9788;48.194;16.318;2024-01-06T10:08:34;15.90;;;11.50;;
19306;SDS011;9788;48.194;16.318;2024-01-06T10:11:07;15.90;;;10.80;;
19306;SDS011;9788;48.194;16.318;2024-01-06T10:13:36;18.53;;;11.97;;
19306;SDS011;9788;48.194;16.318;2024-01-06T10:16:06;15.83;;;11.67;;
19306;SDS011;9788;48.194;16.318;2024-01-06T10:18:38;17.27;;;11.10;;
19306;SDS011;9788;48.194;16.318;2024-01-06T10:21:08;18.90;;;11.97;;
19306;SDS011;9788;48.194;16.318;2024-01-06T10:23:44;19.30;;;11.80;;
19306;SDS011;9788;48.194;16.318;2024-01-06T10:26:15;19.67;;;12.93;;
19306;SDS011;9788;48.194;16.318;2024-01-06T10:28:51;21.97;;;13.43;;
19306;SDS011;9788;48.194;16.318;2024-01-06T10:31:29;19.67;;;13.70;;
19306;SDS011;9788;48.194;16.318;2024-01-06T10:34:02;18.33;;;11.77;;
19306;SDS011;9788;48.194;16.318;2024-01-06T10:36:43;19.10;;;12.63;;
19306;SDS011;9788;48.194;16.318;2024-01-06T10:39:25;18.37;;;11.70;;
19306;SDS011;9788;48.194;16.318;2024-01-06T10:41:56;17.77;;;11.90;;
19306;SDS011;9788;48.194;16.318;2024-01-06T10:44:25;18.20;;;12.43;;
19306;SDS011;9788;48.194;16.318;2024-01-06T10:47:00;18.70;;;12.37;;
19306;SDS011;9788;48.194;16.318;2024-01-06T10:49:32;21.63;;;14.20;;
19306;SDS011;9788;48.194;16.318;2024-01-06T10:52:04;19.40;;;14.57;;
19306;SDS011;9788;48.194;16.318;2024-01-06T10:54:36;20.47;;;13.97;;
19306;SDS011;9788;48.194;16.318;2024-01-06T10:57:07;27.20;;;15.63;;
19306;SDS011;9788;48.194;16.318;2024-01-06T10:59:36;23.30;;;14.10;;
19306;SDS011;9788;48.194;16.318;2024-01-06T11:02:07;24.43;;;15.20;;
19306;SDS011;9788;48.194;16.318;2024-01-06T11:04:37;20.90;;;13.67;;
19306;SDS011;9788;48.194;16.318;2024-01-06T11:07:07;26.03;;;14.77;;
19306;SDS011;9788;48.194;16.318;2024-01-06T11:09:36;21.40;;;13.90;;
19306;SDS011;9788;48.194;16.318;2024-01-06T11:12:07;22.13;;;14.40;;
19306;SDS011;9788;48.194;16.318;2024-01-06T11:14:36;28.07;;;16.90;;
19306;SDS011;9788;48.194;16.318;2024-01-06T11:43:13;19.33;;;12.57;;
19306;SDS011;9788;48.194;16.318;2024-01-06T11:45:51;18.60;;;12.90;;
19306;SDS011;9788;48.194;16.318;2024-01-06T11:48:27;19.37;;;13.13;;
19306;SDS011;9788;48.194;16.318;2024-01-06T11:51:02;20.87;;;13.80;;
19306;SDS011;9788;48.194;16.318;2024-01-06T11:53:50;21.60;;;13.13;;
19306;SDS011;9788;48.194;16.318;2024-01-06T11:56:26;18.27;;;12.23;;
19306;SDS011;9788;48.194;16.318;2024-01-06T11:59:09;21.10;;;13.73;;
19306;SDS011;9788;48.194;16.318;2024-01-06T12:01:42;22.67;;;13.37;;
19306;SDS011;9788;48.194;16.318;2024-01-06T12:04:18;20.33;;;12.73;;
19306;SDS011;9788;48.194;16.318;2024-01-06T12:06:53;21.30;;;13.73;;
19306;SDS011;9788;48.194;16.318;2024-01-06T12:09:39;19.77;;;13.47;;
19306;SDS011;9788;48.194;16.318;2024-01-06T12:12:22;18.97;;;13.40;;
19306;SDS011;9788;48.194;16.318;2024-01-06T12:14:54;22.20;;;14.17;;
19306;SDS011;9788;48.194;16.318;2024-01-06T12:17:47;18.43;;;12.40;;
19306;SDS011;9788;48.194;16.318;2024-01-06T12:20:23;18.60;;;11.70;;
19306;SDS011;9788;48.194;16.318;2024-01-06T12:23:04;20.10;;;13.37;;
19306;SDS011;9788;48.194;16.318;2024-01-06T12:25:39;19.40;;;12.37;;
19306;SDS011;9788;48.194;16.318;2024-01-06T12:28:25;24.97;;;15.73;;
19306;SDS011;9788;48.194;16.318;2024-01-06T12:31:13;18.13;;;12.00;;
19306;SDS011;9788;48.194;16.318;2024-01-06T12:33:48;21.03;;;13.13;;
19306;SDS011;9788;48.194;16.318;2024-01-06T12:36:18;18.70;;;12.60;;
19306;SDS011;9788;48.194;16.318;2024-01-06T12:38:53;18.83;;;12.73;;
19306;SDS011;9788;48.194;16.318;2024-01-06T12:41:26;16.50;;;11.67;;
19306;SDS011;9788;48.194;16.318;2024-01-06T12:44:04;16.00;;;10.83;;
19306;SDS011;9788;48.194;16.318;2024-01-06T12:46:46;15.60;;;10.93;;
19306;SDS011;9788;48.194;16.318;2024-01-06T12:49:24;15.77;;;10.83;;
19306;SDS011;9788;48.194;16.318;2024-01-06T12:51:53;14.87;;;10.33;;
19306;SDS011;9788;48.194;16.318;2024-01-06T12:54:22;13.03;;;10.33;;
19306;SDS011;9788;48.194;16.318;2024-01-06T12:56:53;14.40;;;10.93;;
19306;SDS011;9788;48.194;16.318;2024-01-06T12:59:23;17.33;;;11.93;;
19306;SDS011;9788;48.194;16.318;2024-01-06T13:04:53;15.37;;;11.30;;
19306;SDS011;9788;48.194;16.318;2024-01-06T13:07:26;15.10;;;10.53;;
19306;SDS011;9788;48.194;16.318;2024-01-06T13:09:59;19.60;;;11.40;;
19306;SDS011;9788;48.194;16.318;2024-01-06T13:12:40;15.80;;;11.53;;
19306;SDS011;9788;48.194;16.318;2024-01-06T13:15:16;16.97;;;11.10;;
19306;SDS011;9788;48.194;16.318;2024-01-06T13:17:50;21.07;;;12.90;;
19306;SDS011;9788;48.194;16.318;2024-01-06T13:20:20;18.17;;;11.70;;
19306;SDS011;9788;48.194;16.318;2024-01-06T13:22:52;15.90;;;11.13;;
19306;SDS011;9788;48.194;16.318;2024-01-06T13:25:27;16.60;;;10.80;;
19306;SDS011;9788;48.194;16.318;2024-01-06T13:28:15;15.03;;;11.03;;
19306;SDS011;9788;48.194;16.318;2024-01-06T13:30:43;16.93;;;11.20;;
19306;SDS011;9788;48.194;16.318;2024-01-06T13:33:19;14.13;;;10.83;;
19306;SDS011;9788;48.194;16.318;2024-01-06T13:35:50;18.03;;;12.13;;
19306;SDS011;9788;48.194;16.318;2024-01-06T13:38:23;17.10;;;12.30;;
19306;SDS011;9788;48.194;16.318;2024-01-06T13:45:09;25.37;;;14.10;;
19306;SDS011;9788;48.194;16.318;2024-01-06T13:48:07;19.47;;;13.00;;
19306;SDS011;9788;48.194;16.318;2024-01-06T13:58:14;19.47;;;12.87;;
19306;SDS011;9788;48.194;16.318;2024-01-06T14:01:00;18.63;;;13.37;;
19306;SDS011;9788;48.194;16.318;2024-01-06T14:03:51;20.27;;;13.13;;
19306;SDS011;9788;48.194;16.318;2024-01-06T14:06:31;17.90;;;12.93;;
19306;SDS011;9788;48.194;16.318;2024-01-06T14:09:03;21.43;;;14.47;;
19306;SDS011;9788;48.194;16.318;2024-01-06T14:11:48;19.33;;;13.73;;
19306;SDS011;9788;48.194;16.318;2024-01-06T14:14:54;19.33;;;12.83;;
19306;SDS011;9788;48.194;16.318;2024-01-06T14:17:55;19.27;;;13.20;;
19306;SDS011;9788;48.194;16.318;2024-01-06T14:20:36;19.93;;;13.83;;
19306;SDS011;9788;48.194;16.318;2024-01-06T14:23:11;17.93;;;13.00;;
19306;SDS011;9788;48.194;16.318;2024-01-06T14:25:43;17.97;;;12.60;;
19306;SDS011;9788;48.194;16.318;2024-01-06T14:28:20;18.13;;;12.37;;
19306;SDS011;9788;48.194;16.318;2024-01-06T14:30:55;15.63;;;11.43;;
19306;SDS011;9788;48.194;16.318;2024-01-06T14:33:30;21.40;;;13.10;;
19306;SDS011;9788;48.194;16.318;2024-01-06T14:36:02;16.20;;;12.23;;
19306;SDS011;9788;48.194;16.318;2024-01-06T14:38:38;16.03;;;11.47;;
19306;SDS011;9788;48.194;16.318;2024-01-06T14:41:10;15.70;;;11.07;;
19306;SDS011;9788;48.194;16.318;2024-01-06T14:43:49;15.40;;;11.07;;
19306;SDS011;9788;48.194;16.318;2024-01-06T14:46:58;15.77;;;11.63;;
19306;SDS011;9788;48.194;16.318;2024-01-06T14:49:45;16.00;;;11.13;;
19306;SDS011;9788;48.194;16.318;2024-01-06T14:53:15;17.83;;;12.30;;
19306;SDS011;9788;48.194;16.318;2024-01-06T14:56:15;16.93;;;12.33;;
19306;SDS011;9788;48.194;16.318;2024-01-06T14:58:52;16.93;;;11.77;;
19306;SDS011;9788;48.194;16.318;2024-01-06T15:01:29;17.60;;;11.87;;
19306;SDS011;9788;48.194;16.318;2024-01-06T15:04:02;16.50;;;11.83;;
19306;SDS011;9788;48.194;16.318;2024-01-06T15:06:38;15.37;;;10.90;;
19306;SDS011;9788;48.194;16.318;2024-01-06T15:09:11;19.37;;;11.87;;
19306;SDS011;9788;48.194;16.318;2024-01-06T15:11:46;19.23;;;11.27;;
19306;SDS011;9788;48.194;16.318;2024-01-06T15:14:19;14.60;;;11.23;;
19306;SDS011;9788;48.194;16.318;2024-01-06T15:16:48;17.33;;;12.43;;
19306;SDS011;9788;48.194;16.318;2024-01-06T15:19:16;17.13;;;13.00;;
19306;SDS011;9788;48.194;16.318;2024-01-06T15:21:46;18.37;;;13.07;;
19306;SDS011;9788;48.194;16.318;2024-01-06T15:24:46;17.33;;;12.10;;
19306;SDS011;9788;48.194;16.318;2024-01-06T15:27:24;16.73;;;11.97;;
19306;SDS011;9788;48.194;16.318;2024-01-06T15:33:08;15.03;;;10.20;;
19306;SDS011;9788;48.194;16.318;2024-01-06T15:35:47;17.50;;;11.80;;